<?xml version="1.0" encoding="UTF-8" standalone="no" ?>
<gpx xmlns="http://www.topografix.com/GPX/1/1" xmlns:xsi="http://www.w3.org/2001/XMLSchema-instance" xsi:schemaLocation="http://www.topografix.com/GPX/1/1 http://www.topografix.com/GPX/1/1/gpx.xsd" version="1.1" creator="VisuGPX - https://www.visugpx.com">
  <metadata>
    <name>Le Chevril</name>
    <desc><![CDATA[Sortie raquettes du 7 mars 2014 avec le Bureau des Guides de Tignes]]></desc>
  </metadata>
  <trk>
    <name><![CDATA[Chevril]]></name>
    <desc><![CDATA[]]></desc>
    <trkseg>
      <trkpt lat="45.49747" lon="6.93524">
        <ele>1864</ele>
        <time>2014-03-07T13:38:09.472Z</time>
      </trkpt>
      <trkpt lat="45.49753" lon="6.93529">
        <ele>1876</ele>
        <time>2014-03-07T13:38:10.462Z</time>
      </trkpt>
      <trkpt lat="45.49762" lon="6.93537">
        <ele>1880</ele>
        <time>2014-03-07T13:38:11.456Z</time>
      </trkpt>
      <trkpt lat="45.49756" lon="6.93535">
        <ele>1879</ele>
        <time>2014-03-07T13:38:16.454Z</time>
      </trkpt>
      <trkpt lat="45.49748" lon="6.93538">
        <ele>1868</ele>
        <time>2014-03-07T13:38:17.471Z</time>
      </trkpt>
      <trkpt lat="45.49754" lon="6.9355">
        <ele>1884</ele>
        <time>2014-03-07T13:38:18.473Z</time>
      </trkpt>
      <trkpt lat="45.49754" lon="6.93538">
        <ele>1880</ele>
        <time>2014-03-07T13:38:20.527Z</time>
      </trkpt>
      <trkpt lat="45.49753" lon="6.93536">
        <ele>1879</ele>
        <time>2014-03-07T13:38:21.461Z</time>
      </trkpt>
      <trkpt lat="45.4976" lon="6.93543">
        <ele>1882</ele>
        <time>2014-03-07T13:38:25.460Z</time>
      </trkpt>
      <trkpt lat="45.4976" lon="6.93544">
        <ele>1882</ele>
        <time>2014-03-07T13:38:26.474Z</time>
      </trkpt>
      <trkpt lat="45.49757" lon="6.93556">
        <ele>1886</ele>
        <time>2014-03-07T13:38:59.020Z</time>
      </trkpt>
      <trkpt lat="45.49756" lon="6.93556">
        <ele>1886</ele>
        <time>2014-03-07T13:39:00.028Z</time>
      </trkpt>
      <trkpt lat="45.49747" lon="6.93557">
        <ele>1876</ele>
        <time>2014-03-07T13:39:15.040Z</time>
      </trkpt>
      <trkpt lat="45.49746" lon="6.93557">
        <ele>1876</ele>
        <time>2014-03-07T13:39:16.040Z</time>
      </trkpt>
      <trkpt lat="45.49751" lon="6.93568">
        <ele>1889</ele>
        <time>2014-03-07T13:40:07.033Z</time>
      </trkpt>
      <trkpt lat="45.49751" lon="6.93569">
        <ele>1889</ele>
        <time>2014-03-07T13:40:08.036Z</time>
      </trkpt>
      <trkpt lat="45.49742" lon="6.93568">
        <ele>1880</ele>
        <time>2014-03-07T13:40:43.036Z</time>
      </trkpt>
      <trkpt lat="45.4974" lon="6.93569">
        <ele>1880</ele>
        <time>2014-03-07T13:40:44.038Z</time>
      </trkpt>
      <trkpt lat="45.49733" lon="6.93572">
        <ele>1879</ele>
        <time>2014-03-07T13:40:46.035Z</time>
      </trkpt>
      <trkpt lat="45.4973" lon="6.93573">
        <ele>1878</ele>
        <time>2014-03-07T13:40:47.036Z</time>
      </trkpt>
      <trkpt lat="45.49722" lon="6.93572">
        <ele>1875</ele>
        <time>2014-03-07T13:40:51.037Z</time>
      </trkpt>
      <trkpt lat="45.4972" lon="6.93572">
        <ele>1874</ele>
        <time>2014-03-07T13:40:52.034Z</time>
      </trkpt>
      <trkpt lat="45.49718" lon="6.93584">
        <ele>1900</ele>
        <time>2014-03-07T13:41:17.034Z</time>
      </trkpt>
      <trkpt lat="45.49718" lon="6.93585">
        <ele>1901</ele>
        <time>2014-03-07T13:41:18.033Z</time>
      </trkpt>
      <trkpt lat="45.49723" lon="6.93595">
        <ele>1902</ele>
        <time>2014-03-07T13:41:30.031Z</time>
      </trkpt>
      <trkpt lat="45.49723" lon="6.93596">
        <ele>1902</ele>
        <time>2014-03-07T13:41:31.034Z</time>
      </trkpt>
      <trkpt lat="45.4973" lon="6.93601">
        <ele>1904</ele>
        <time>2014-03-07T13:41:49.036Z</time>
      </trkpt>
      <trkpt lat="45.49732" lon="6.93602">
        <ele>1904</ele>
        <time>2014-03-07T13:41:50.035Z</time>
      </trkpt>
      <trkpt lat="45.49736" lon="6.93614">
        <ele>1908</ele>
        <time>2014-03-07T13:42:36.033Z</time>
      </trkpt>
      <trkpt lat="45.49735" lon="6.93614">
        <ele>1908</ele>
        <time>2014-03-07T13:42:37.032Z</time>
      </trkpt>
      <trkpt lat="45.49741" lon="6.93622">
        <ele>1912</ele>
        <time>2014-03-07T13:42:47.031Z</time>
      </trkpt>
      <trkpt lat="45.49742" lon="6.93623">
        <ele>1912</ele>
        <time>2014-03-07T13:42:48.031Z</time>
      </trkpt>
      <trkpt lat="45.4975" lon="6.93626">
        <ele>1925</ele>
        <time>2014-03-07T13:44:46.030Z</time>
      </trkpt>
      <trkpt lat="45.49751" lon="6.93627">
        <ele>1925</ele>
        <time>2014-03-07T13:44:47.032Z</time>
      </trkpt>
      <trkpt lat="45.49759" lon="6.93631">
        <ele>1928</ele>
        <time>2014-03-07T13:45:08.014Z</time>
      </trkpt>
      <trkpt lat="45.49759" lon="6.93631">
        <ele>1928</ele>
        <time>2014-03-07T13:45:09.032Z</time>
      </trkpt>
      <trkpt lat="45.49767" lon="6.93626">
        <ele>1926</ele>
        <time>2014-03-07T13:45:18.028Z</time>
      </trkpt>
      <trkpt lat="45.49769" lon="6.93626">
        <ele>1926</ele>
        <time>2014-03-07T13:45:19.033Z</time>
      </trkpt>
      <trkpt lat="45.49778" lon="6.93624">
        <ele>1926</ele>
        <time>2014-03-07T13:45:33.028Z</time>
      </trkpt>
      <trkpt lat="45.49778" lon="6.93624">
        <ele>1926</ele>
        <time>2014-03-07T13:45:34.027Z</time>
      </trkpt>
      <trkpt lat="45.49787" lon="6.93621">
        <ele>1926</ele>
        <time>2014-03-07T13:45:44.028Z</time>
      </trkpt>
      <trkpt lat="45.49788" lon="6.93621">
        <ele>1927</ele>
        <time>2014-03-07T13:45:45.027Z</time>
      </trkpt>
      <trkpt lat="45.49797" lon="6.9362">
        <ele>1927</ele>
        <time>2014-03-07T13:46:05.029Z</time>
      </trkpt>
      <trkpt lat="45.49797" lon="6.9362">
        <ele>1927</ele>
        <time>2014-03-07T13:46:06.029Z</time>
      </trkpt>
      <trkpt lat="45.49805" lon="6.93616">
        <ele>1927</ele>
        <time>2014-03-07T13:46:30.031Z</time>
      </trkpt>
      <trkpt lat="45.49806" lon="6.93615">
        <ele>1927</ele>
        <time>2014-03-07T13:46:31.030Z</time>
      </trkpt>
      <trkpt lat="45.49811" lon="6.93615">
        <ele>1927</ele>
        <time>2014-03-07T13:46:37.032Z</time>
      </trkpt>
      <trkpt lat="45.49815" lon="6.93615">
        <ele>1927</ele>
        <time>2014-03-07T13:46:38.028Z</time>
      </trkpt>
      <trkpt lat="45.49815" lon="6.93603">
        <ele>1924</ele>
        <time>2014-03-07T13:46:57.071Z</time>
      </trkpt>
      <trkpt lat="45.49817" lon="6.93602">
        <ele>1924</ele>
        <time>2014-03-07T13:46:58.031Z</time>
      </trkpt>
      <trkpt lat="45.49824" lon="6.93598">
        <ele>1922</ele>
        <time>2014-03-07T13:47:00.162Z</time>
      </trkpt>
      <trkpt lat="45.49827" lon="6.93597">
        <ele>1922</ele>
        <time>2014-03-07T13:47:01.108Z</time>
      </trkpt>
      <trkpt lat="45.49836" lon="6.93595">
        <ele>1926</ele>
        <time>2014-03-07T13:48:27.029Z</time>
      </trkpt>
      <trkpt lat="45.49837" lon="6.93595">
        <ele>1926</ele>
        <time>2014-03-07T13:48:28.028Z</time>
      </trkpt>
      <trkpt lat="45.49845" lon="6.93591">
        <ele>1927</ele>
        <time>2014-03-07T13:48:43.027Z</time>
      </trkpt>
      <trkpt lat="45.49846" lon="6.9359">
        <ele>1928</ele>
        <time>2014-03-07T13:48:44.026Z</time>
      </trkpt>
      <trkpt lat="45.49853" lon="6.93584">
        <ele>1930</ele>
        <time>2014-03-07T13:49:04.029Z</time>
      </trkpt>
      <trkpt lat="45.49854" lon="6.93584">
        <ele>1930</ele>
        <time>2014-03-07T13:49:05.028Z</time>
      </trkpt>
      <trkpt lat="45.49862" lon="6.9358">
        <ele>1912</ele>
        <time>2014-03-07T13:49:34.053Z</time>
      </trkpt>
      <trkpt lat="45.49862" lon="6.9358">
        <ele>1912</ele>
        <time>2014-03-07T13:49:35.040Z</time>
      </trkpt>
      <trkpt lat="45.49869" lon="6.93587">
        <ele>1935</ele>
        <time>2014-03-07T13:49:47.028Z</time>
      </trkpt>
      <trkpt lat="45.4987" lon="6.93588">
        <ele>1935</ele>
        <time>2014-03-07T13:49:48.025Z</time>
      </trkpt>
      <trkpt lat="45.4987" lon="6.93582">
        <ele>1913</ele>
        <time>2014-03-07T13:50:03.047Z</time>
      </trkpt>
      <trkpt lat="45.49889" lon="6.93577">
        <ele>1917</ele>
        <time>2014-03-07T13:50:04.055Z</time>
      </trkpt>
      <trkpt lat="45.49882" lon="6.9357">
        <ele>1914</ele>
        <time>2014-03-07T13:50:11.025Z</time>
      </trkpt>
      <trkpt lat="45.49882" lon="6.93569">
        <ele>1913</ele>
        <time>2014-03-07T13:50:12.165Z</time>
      </trkpt>
      <trkpt lat="45.4989" lon="6.93567">
        <ele>1915</ele>
        <time>2014-03-07T13:50:25.026Z</time>
      </trkpt>
      <trkpt lat="45.49891" lon="6.93567">
        <ele>1915</ele>
        <time>2014-03-07T13:50:26.026Z</time>
      </trkpt>
      <trkpt lat="45.49896" lon="6.93558">
        <ele>1914</ele>
        <time>2014-03-07T13:50:30.026Z</time>
      </trkpt>
      <trkpt lat="45.49897" lon="6.93556">
        <ele>1914</ele>
        <time>2014-03-07T13:50:31.024Z</time>
      </trkpt>
      <trkpt lat="45.49903" lon="6.93547">
        <ele>1912</ele>
        <time>2014-03-07T13:50:43.026Z</time>
      </trkpt>
      <trkpt lat="45.49904" lon="6.93547">
        <ele>1912</ele>
        <time>2014-03-07T13:50:44.024Z</time>
      </trkpt>
      <trkpt lat="45.49909" lon="6.93538">
        <ele>1910</ele>
        <time>2014-03-07T13:50:56.024Z</time>
      </trkpt>
      <trkpt lat="45.4991" lon="6.93537">
        <ele>1910</ele>
        <time>2014-03-07T13:50:57.022Z</time>
      </trkpt>
      <trkpt lat="45.49915" lon="6.93528">
        <ele>1908</ele>
        <time>2014-03-07T13:51:07.022Z</time>
      </trkpt>
      <trkpt lat="45.49916" lon="6.93526">
        <ele>1908</ele>
        <time>2014-03-07T13:51:08.023Z</time>
      </trkpt>
      <trkpt lat="45.49923" lon="6.9352">
        <ele>1918</ele>
        <time>2014-03-07T13:51:16.021Z</time>
      </trkpt>
      <trkpt lat="45.49925" lon="6.9352">
        <ele>1919</ele>
        <time>2014-03-07T13:51:17.024Z</time>
      </trkpt>
      <trkpt lat="45.49932" lon="6.93512">
        <ele>1918</ele>
        <time>2014-03-07T13:51:31.039Z</time>
      </trkpt>
      <trkpt lat="45.49934" lon="6.93512">
        <ele>1918</ele>
        <time>2014-03-07T13:51:32.046Z</time>
      </trkpt>
      <trkpt lat="45.49942" lon="6.93515">
        <ele>1922</ele>
        <time>2014-03-07T13:52:02.086Z</time>
      </trkpt>
      <trkpt lat="45.49943" lon="6.93516">
        <ele>1922</ele>
        <time>2014-03-07T13:52:03.090Z</time>
      </trkpt>
      <trkpt lat="45.49951" lon="6.93512">
        <ele>1924</ele>
        <time>2014-03-07T13:52:12.049Z</time>
      </trkpt>
      <trkpt lat="45.49952" lon="6.93512">
        <ele>1924</ele>
        <time>2014-03-07T13:52:13.085Z</time>
      </trkpt>
      <trkpt lat="45.49956" lon="6.93523">
        <ele>1926</ele>
        <time>2014-03-07T14:01:50.016Z</time>
      </trkpt>
      <trkpt lat="45.49956" lon="6.93524">
        <ele>1926</ele>
        <time>2014-03-07T14:01:51.073Z</time>
      </trkpt>
      <trkpt lat="45.49952" lon="6.93536">
        <ele>1927</ele>
        <time>2014-03-07T14:02:05.049Z</time>
      </trkpt>
      <trkpt lat="45.49952" lon="6.93536">
        <ele>1927</ele>
        <time>2014-03-07T14:02:06.059Z</time>
      </trkpt>
      <trkpt lat="45.49947" lon="6.93547">
        <ele>1928</ele>
        <time>2014-03-07T14:02:26.080Z</time>
      </trkpt>
      <trkpt lat="45.49947" lon="6.93547">
        <ele>1929</ele>
        <time>2014-03-07T14:02:27.047Z</time>
      </trkpt>
      <trkpt lat="45.49938" lon="6.93545">
        <ele>1927</ele>
        <time>2014-03-07T14:02:51.057Z</time>
      </trkpt>
      <trkpt lat="45.49938" lon="6.93545">
        <ele>1927</ele>
        <time>2014-03-07T14:02:52.066Z</time>
      </trkpt>
      <trkpt lat="45.49929" lon="6.9355">
        <ele>1928</ele>
        <time>2014-03-07T14:03:15.057Z</time>
      </trkpt>
      <trkpt lat="45.49929" lon="6.9355">
        <ele>1928</ele>
        <time>2014-03-07T14:03:16.054Z</time>
      </trkpt>
      <trkpt lat="45.49922" lon="6.93557">
        <ele>1929</ele>
        <time>2014-03-07T14:03:39.049Z</time>
      </trkpt>
      <trkpt lat="45.49921" lon="6.93557">
        <ele>1929</ele>
        <time>2014-03-07T14:03:40.070Z</time>
      </trkpt>
      <trkpt lat="45.49921" lon="6.9357">
        <ele>1931</ele>
        <time>2014-03-07T14:04:13.052Z</time>
      </trkpt>
      <trkpt lat="45.49921" lon="6.9357">
        <ele>1931</ele>
        <time>2014-03-07T14:04:14.060Z</time>
      </trkpt>
      <trkpt lat="45.49914" lon="6.93578">
        <ele>1928</ele>
        <time>2014-03-07T14:04:47.075Z</time>
      </trkpt>
      <trkpt lat="45.49914" lon="6.93578">
        <ele>1928</ele>
        <time>2014-03-07T14:04:48.086Z</time>
      </trkpt>
      <trkpt lat="45.49909" lon="6.93588">
        <ele>1936</ele>
        <time>2014-03-07T14:05:01.052Z</time>
      </trkpt>
      <trkpt lat="45.49908" lon="6.93589">
        <ele>1937</ele>
        <time>2014-03-07T14:05:02.012Z</time>
      </trkpt>
      <trkpt lat="45.49903" lon="6.93598">
        <ele>1939</ele>
        <time>2014-03-07T14:05:17.047Z</time>
      </trkpt>
      <trkpt lat="45.49902" lon="6.93599">
        <ele>1939</ele>
        <time>2014-03-07T14:05:18.082Z</time>
      </trkpt>
      <trkpt lat="45.49898" lon="6.9361">
        <ele>1941</ele>
        <time>2014-03-07T14:05:44.066Z</time>
      </trkpt>
      <trkpt lat="45.49898" lon="6.93611">
        <ele>1941</ele>
        <time>2014-03-07T14:05:45.069Z</time>
      </trkpt>
      <trkpt lat="45.49896" lon="6.93623">
        <ele>1944</ele>
        <time>2014-03-07T14:06:03.010Z</time>
      </trkpt>
      <trkpt lat="45.49897" lon="6.93623">
        <ele>1944</ele>
        <time>2014-03-07T14:06:04.111Z</time>
      </trkpt>
      <trkpt lat="45.49905" lon="6.93627">
        <ele>1945</ele>
        <time>2014-03-07T14:06:34.052Z</time>
      </trkpt>
      <trkpt lat="45.49905" lon="6.93627">
        <ele>1945</ele>
        <time>2014-03-07T14:06:35.069Z</time>
      </trkpt>
      <trkpt lat="45.49912" lon="6.93634">
        <ele>1948</ele>
        <time>2014-03-07T14:06:50.052Z</time>
      </trkpt>
      <trkpt lat="45.49913" lon="6.93634">
        <ele>1948</ele>
        <time>2014-03-07T14:06:50.998Z</time>
      </trkpt>
      <trkpt lat="45.49921" lon="6.9364">
        <ele>1956</ele>
        <time>2014-03-07T14:07:18.050Z</time>
      </trkpt>
      <trkpt lat="45.49921" lon="6.9364">
        <ele>1956</ele>
        <time>2014-03-07T14:07:19.030Z</time>
      </trkpt>
      <trkpt lat="45.49916" lon="6.9365">
        <ele>1954</ele>
        <time>2014-03-07T14:07:51.007Z</time>
      </trkpt>
      <trkpt lat="45.49916" lon="6.93651">
        <ele>1954</ele>
        <time>2014-03-07T14:07:52.007Z</time>
      </trkpt>
      <trkpt lat="45.49909" lon="6.93658">
        <ele>1956</ele>
        <time>2014-03-07T14:09:51.005Z</time>
      </trkpt>
      <trkpt lat="45.49908" lon="6.93659">
        <ele>1956</ele>
        <time>2014-03-07T14:09:52.007Z</time>
      </trkpt>
      <trkpt lat="45.49901" lon="6.93665">
        <ele>1955</ele>
        <time>2014-03-07T14:10:09.005Z</time>
      </trkpt>
      <trkpt lat="45.499" lon="6.93666">
        <ele>1955</ele>
        <time>2014-03-07T14:10:10.006Z</time>
      </trkpt>
      <trkpt lat="45.49904" lon="6.93672">
        <ele>1967</ele>
        <time>2014-03-07T14:10:37.005Z</time>
      </trkpt>
      <trkpt lat="45.49901" lon="6.93687">
        <ele>1970</ele>
        <time>2014-03-07T14:10:40.005Z</time>
      </trkpt>
      <trkpt lat="45.49896" lon="6.93696">
        <ele>1972</ele>
        <time>2014-03-07T14:10:50.005Z</time>
      </trkpt>
      <trkpt lat="45.49895" lon="6.93697">
        <ele>1972</ele>
        <time>2014-03-07T14:10:51.005Z</time>
      </trkpt>
      <trkpt lat="45.4989" lon="6.93694">
        <ele>1971</ele>
        <time>2014-03-07T14:10:56.009Z</time>
      </trkpt>
      <trkpt lat="45.49885" lon="6.93693">
        <ele>1971</ele>
        <time>2014-03-07T14:10:57.009Z</time>
      </trkpt>
      <trkpt lat="45.49879" lon="6.93684">
        <ele>1970</ele>
        <time>2014-03-07T14:12:03.078Z</time>
      </trkpt>
      <trkpt lat="45.49878" lon="6.93684">
        <ele>1970</ele>
        <time>2014-03-07T14:12:04.081Z</time>
      </trkpt>
      <trkpt lat="45.49871" lon="6.93688">
        <ele>1970</ele>
        <time>2014-03-07T14:12:17.052Z</time>
      </trkpt>
      <trkpt lat="45.4987" lon="6.93688">
        <ele>1970</ele>
        <time>2014-03-07T14:12:18.012Z</time>
      </trkpt>
      <trkpt lat="45.49862" lon="6.93694">
        <ele>1970</ele>
        <time>2014-03-07T14:12:27.008Z</time>
      </trkpt>
      <trkpt lat="45.49859" lon="6.93693">
        <ele>1970</ele>
        <time>2014-03-07T14:12:28.032Z</time>
      </trkpt>
      <trkpt lat="45.49851" lon="6.93697">
        <ele>1970</ele>
        <time>2014-03-07T14:12:35.060Z</time>
      </trkpt>
      <trkpt lat="45.49849" lon="6.93696">
        <ele>1970</ele>
        <time>2014-03-07T14:12:36.069Z</time>
      </trkpt>
      <trkpt lat="45.49844" lon="6.9369">
        <ele>1968</ele>
        <time>2014-03-07T14:12:39.016Z</time>
      </trkpt>
      <trkpt lat="45.49843" lon="6.93686">
        <ele>1967</ele>
        <time>2014-03-07T14:12:40.052Z</time>
      </trkpt>
      <trkpt lat="45.4984" lon="6.93678">
        <ele>1964</ele>
        <time>2014-03-07T14:12:42.070Z</time>
      </trkpt>
      <trkpt lat="45.49835" lon="6.93678">
        <ele>1963</ele>
        <time>2014-03-07T14:12:43.062Z</time>
      </trkpt>
      <trkpt lat="45.49829" lon="6.93685">
        <ele>1963</ele>
        <time>2014-03-07T14:12:45.049Z</time>
      </trkpt>
      <trkpt lat="45.49831" lon="6.93698">
        <ele>1966</ele>
        <time>2014-03-07T14:12:46.047Z</time>
      </trkpt>
      <trkpt lat="45.4984" lon="6.93692">
        <ele>1969</ele>
        <time>2014-03-07T14:12:47.064Z</time>
      </trkpt>
      <trkpt lat="45.49836" lon="6.93687">
        <ele>1967</ele>
        <time>2014-03-07T14:12:51.057Z</time>
      </trkpt>
      <trkpt lat="45.49821" lon="6.93696">
        <ele>1966</ele>
        <time>2014-03-07T14:12:52.062Z</time>
      </trkpt>
      <trkpt lat="45.49828" lon="6.9369">
        <ele>1964</ele>
        <time>2014-03-07T14:12:53.068Z</time>
      </trkpt>
      <trkpt lat="45.49838" lon="6.937">
        <ele>1970</ele>
        <time>2014-03-07T14:12:54.081Z</time>
      </trkpt>
      <trkpt lat="45.49828" lon="6.93714">
        <ele>1970</ele>
        <time>2014-03-07T14:12:55.013Z</time>
      </trkpt>
      <trkpt lat="45.49829" lon="6.93703">
        <ele>1967</ele>
        <time>2014-03-07T14:12:56.054Z</time>
      </trkpt>
      <trkpt lat="45.49811" lon="6.937">
        <ele>1966</ele>
        <time>2014-03-07T14:12:57.012Z</time>
      </trkpt>
      <trkpt lat="45.49827" lon="6.93683">
        <ele>1962</ele>
        <time>2014-03-07T14:12:58.057Z</time>
      </trkpt>
      <trkpt lat="45.49821" lon="6.93695">
        <ele>1965</ele>
        <time>2014-03-07T14:12:59.009Z</time>
      </trkpt>
      <trkpt lat="45.49832" lon="6.93687">
        <ele>1963</ele>
        <time>2014-03-07T14:13:00.205Z</time>
      </trkpt>
      <trkpt lat="45.49834" lon="6.93715">
        <ele>1974</ele>
        <time>2014-03-07T14:13:01.032Z</time>
      </trkpt>
      <trkpt lat="45.49834" lon="6.93707">
        <ele>1972</ele>
        <time>2014-03-07T14:13:03.065Z</time>
      </trkpt>
      <trkpt lat="45.4983" lon="6.93701">
        <ele>1967</ele>
        <time>2014-03-07T14:13:04.006Z</time>
      </trkpt>
      <trkpt lat="45.49823" lon="6.93712">
        <ele>1969</ele>
        <time>2014-03-07T14:13:05.029Z</time>
      </trkpt>
      <trkpt lat="45.4983" lon="6.93691">
        <ele>1964</ele>
        <time>2014-03-07T14:13:06.032Z</time>
      </trkpt>
      <trkpt lat="45.49836" lon="6.93716">
        <ele>1975</ele>
        <time>2014-03-07T14:13:07.054Z</time>
      </trkpt>
      <trkpt lat="45.49834" lon="6.93701">
        <ele>1971</ele>
        <time>2014-03-07T14:13:08.046Z</time>
      </trkpt>
      <trkpt lat="45.49826" lon="6.93697">
        <ele>1966</ele>
        <time>2014-03-07T14:13:10.056Z</time>
      </trkpt>
      <trkpt lat="45.49825" lon="6.93698">
        <ele>1966</ele>
        <time>2014-03-07T14:13:11.005Z</time>
      </trkpt>
      <trkpt lat="45.4982" lon="6.93694">
        <ele>1965</ele>
        <time>2014-03-07T14:13:13.008Z</time>
      </trkpt>
      <trkpt lat="45.4983" lon="6.9371">
        <ele>1969</ele>
        <time>2014-03-07T14:13:14.038Z</time>
      </trkpt>
      <trkpt lat="45.49826" lon="6.93699">
        <ele>1966</ele>
        <time>2014-03-07T14:13:18.022Z</time>
      </trkpt>
      <trkpt lat="45.49821" lon="6.93693">
        <ele>1965</ele>
        <time>2014-03-07T14:13:19.009Z</time>
      </trkpt>
      <trkpt lat="45.49822" lon="6.937">
        <ele>1966</ele>
        <time>2014-03-07T14:13:20.004Z</time>
      </trkpt>
      <trkpt lat="45.49817" lon="6.93719">
        <ele>1971</ele>
        <time>2014-03-07T14:13:21.008Z</time>
      </trkpt>
      <trkpt lat="45.49824" lon="6.9371">
        <ele>1969</ele>
        <time>2014-03-07T14:13:22.008Z</time>
      </trkpt>
      <trkpt lat="45.49817" lon="6.93721">
        <ele>1971</ele>
        <time>2014-03-07T14:13:23.035Z</time>
      </trkpt>
      <trkpt lat="45.49821" lon="6.93706">
        <ele>1968</ele>
        <time>2014-03-07T14:13:24.007Z</time>
      </trkpt>
      <trkpt lat="45.49817" lon="6.93708">
        <ele>1968</ele>
        <time>2014-03-07T14:13:28.051Z</time>
      </trkpt>
      <trkpt lat="45.49832" lon="6.9371">
        <ele>1969</ele>
        <time>2014-03-07T14:13:29.007Z</time>
      </trkpt>
      <trkpt lat="45.49834" lon="6.93716">
        <ele>1975</ele>
        <time>2014-03-07T14:13:31.059Z</time>
      </trkpt>
      <trkpt lat="45.49837" lon="6.93726">
        <ele>1978</ele>
        <time>2014-03-07T14:13:32.088Z</time>
      </trkpt>
      <trkpt lat="45.49831" lon="6.93718">
        <ele>1972</ele>
        <time>2014-03-07T14:13:33.027Z</time>
      </trkpt>
      <trkpt lat="45.4982" lon="6.93718">
        <ele>1971</ele>
        <time>2014-03-07T14:13:34.004Z</time>
      </trkpt>
      <trkpt lat="45.49818" lon="6.93727">
        <ele>1973</ele>
        <time>2014-03-07T14:13:36.007Z</time>
      </trkpt>
      <trkpt lat="45.49813" lon="6.93737">
        <ele>1975</ele>
        <time>2014-03-07T14:13:37.057Z</time>
      </trkpt>
      <trkpt lat="45.49808" lon="6.93725">
        <ele>1971</ele>
        <time>2014-03-07T14:13:38.014Z</time>
      </trkpt>
      <trkpt lat="45.49815" lon="6.93728">
        <ele>1973</ele>
        <time>2014-03-07T14:13:39.011Z</time>
      </trkpt>
      <trkpt lat="45.49821" lon="6.93711">
        <ele>1969</ele>
        <time>2014-03-07T14:13:40.006Z</time>
      </trkpt>
      <trkpt lat="45.49825" lon="6.93711">
        <ele>1969</ele>
        <time>2014-03-07T14:13:42.049Z</time>
      </trkpt>
      <trkpt lat="45.49815" lon="6.93723">
        <ele>1972</ele>
        <time>2014-03-07T14:13:43.004Z</time>
      </trkpt>
      <trkpt lat="45.49814" lon="6.93728">
        <ele>1973</ele>
        <time>2014-03-07T14:13:45.016Z</time>
      </trkpt>
      <trkpt lat="45.49826" lon="6.9372">
        <ele>1972</ele>
        <time>2014-03-07T14:13:46.004Z</time>
      </trkpt>
      <trkpt lat="45.49822" lon="6.93726">
        <ele>1973</ele>
        <time>2014-03-07T14:13:51.005Z</time>
      </trkpt>
      <trkpt lat="45.49815" lon="6.93719">
        <ele>1971</ele>
        <time>2014-03-07T14:13:52.006Z</time>
      </trkpt>
      <trkpt lat="45.49815" lon="6.93722">
        <ele>1971</ele>
        <time>2014-03-07T14:13:58.087Z</time>
      </trkpt>
      <trkpt lat="45.49819" lon="6.93731">
        <ele>1974</ele>
        <time>2014-03-07T14:13:59.006Z</time>
      </trkpt>
      <trkpt lat="45.49813" lon="6.9373">
        <ele>1973</ele>
        <time>2014-03-07T14:14:00.167Z</time>
      </trkpt>
      <trkpt lat="45.49809" lon="6.93732">
        <ele>1973</ele>
        <time>2014-03-07T14:14:01.011Z</time>
      </trkpt>
      <trkpt lat="45.49804" lon="6.93723">
        <ele>1970</ele>
        <time>2014-03-07T14:14:06.037Z</time>
      </trkpt>
      <trkpt lat="45.49811" lon="6.93719">
        <ele>1970</ele>
        <time>2014-03-07T14:14:07.019Z</time>
      </trkpt>
      <trkpt lat="45.49817" lon="6.93712">
        <ele>1969</ele>
        <time>2014-03-07T14:14:09.048Z</time>
      </trkpt>
      <trkpt lat="45.49822" lon="6.93723">
        <ele>1972</ele>
        <time>2014-03-07T14:14:10.023Z</time>
      </trkpt>
      <trkpt lat="45.49815" lon="6.93718">
        <ele>1970</ele>
        <time>2014-03-07T14:14:13.012Z</time>
      </trkpt>
      <trkpt lat="45.49812" lon="6.93714">
        <ele>1969</ele>
        <time>2014-03-07T14:14:14.004Z</time>
      </trkpt>
      <trkpt lat="45.49806" lon="6.93722">
        <ele>1970</ele>
        <time>2014-03-07T14:26:42.037Z</time>
      </trkpt>
      <trkpt lat="45.49805" lon="6.93723">
        <ele>1971</ele>
        <time>2014-03-07T14:26:43.055Z</time>
      </trkpt>
      <trkpt lat="45.49804" lon="6.93734">
        <ele>1973</ele>
        <time>2014-03-07T14:27:01.030Z</time>
      </trkpt>
      <trkpt lat="45.49804" lon="6.93735">
        <ele>1973</ele>
        <time>2014-03-07T14:27:01.993Z</time>
      </trkpt>
      <trkpt lat="45.49805" lon="6.93747">
        <ele>1974</ele>
        <time>2014-03-07T14:27:24.060Z</time>
      </trkpt>
      <trkpt lat="45.49805" lon="6.93748">
        <ele>1974</ele>
        <time>2014-03-07T14:27:25.092Z</time>
      </trkpt>
      <trkpt lat="45.498" lon="6.93759">
        <ele>1996</ele>
        <time>2014-03-07T14:27:44.008Z</time>
      </trkpt>
      <trkpt lat="45.498" lon="6.93759">
        <ele>1996</ele>
        <time>2014-03-07T14:27:45.046Z</time>
      </trkpt>
      <trkpt lat="45.49794" lon="6.93769">
        <ele>1998</ele>
        <time>2014-03-07T14:28:13.044Z</time>
      </trkpt>
      <trkpt lat="45.49794" lon="6.9377">
        <ele>1998</ele>
        <time>2014-03-07T14:28:14.026Z</time>
      </trkpt>
      <trkpt lat="45.49799" lon="6.9378">
        <ele>2000</ele>
        <time>2014-03-07T14:29:09.989Z</time>
      </trkpt>
      <trkpt lat="45.49799" lon="6.9378">
        <ele>2000</ele>
        <time>2014-03-07T14:29:10.989Z</time>
      </trkpt>
      <trkpt lat="45.49808" lon="6.93782">
        <ele>2000</ele>
        <time>2014-03-07T14:29:48.056Z</time>
      </trkpt>
      <trkpt lat="45.49809" lon="6.93782">
        <ele>2000</ele>
        <time>2014-03-07T14:29:49.063Z</time>
      </trkpt>
      <trkpt lat="45.49818" lon="6.93782">
        <ele>2000</ele>
        <time>2014-03-07T14:30:11.051Z</time>
      </trkpt>
      <trkpt lat="45.49818" lon="6.93782">
        <ele>2000</ele>
        <time>2014-03-07T14:30:12.060Z</time>
      </trkpt>
      <trkpt lat="45.49827" lon="6.9378">
        <ele>1999</ele>
        <time>2014-03-07T14:30:19.988Z</time>
      </trkpt>
      <trkpt lat="45.49827" lon="6.9378">
        <ele>1999</ele>
        <time>2014-03-07T14:30:21.042Z</time>
      </trkpt>
      <trkpt lat="45.49835" lon="6.93774">
        <ele>1996</ele>
        <time>2014-03-07T14:31:52.988Z</time>
      </trkpt>
      <trkpt lat="45.49836" lon="6.93773">
        <ele>1996</ele>
        <time>2014-03-07T14:31:54.000Z</time>
      </trkpt>
      <trkpt lat="45.49844" lon="6.9377">
        <ele>1995</ele>
        <time>2014-03-07T14:32:12.990Z</time>
      </trkpt>
      <trkpt lat="45.49845" lon="6.9377">
        <ele>1995</ele>
        <time>2014-03-07T14:32:13.987Z</time>
      </trkpt>
      <trkpt lat="45.49853" lon="6.93765">
        <ele>1995</ele>
        <time>2014-03-07T14:32:28.061Z</time>
      </trkpt>
      <trkpt lat="45.49853" lon="6.93765">
        <ele>1995</ele>
        <time>2014-03-07T14:32:29.020Z</time>
      </trkpt>
      <trkpt lat="45.49862" lon="6.93765">
        <ele>1995</ele>
        <time>2014-03-07T14:33:35.985Z</time>
      </trkpt>
      <trkpt lat="45.49862" lon="6.93767">
        <ele>1996</ele>
        <time>2014-03-07T14:33:37.007Z</time>
      </trkpt>
      <trkpt lat="45.49871" lon="6.93771">
        <ele>1996</ele>
        <time>2014-03-07T14:33:48.025Z</time>
      </trkpt>
      <trkpt lat="45.49873" lon="6.93769">
        <ele>1996</ele>
        <time>2014-03-07T14:33:48.999Z</time>
      </trkpt>
      <trkpt lat="45.49879" lon="6.93778">
        <ele>1997</ele>
        <time>2014-03-07T14:34:15.015Z</time>
      </trkpt>
      <trkpt lat="45.49879" lon="6.93779">
        <ele>1997</ele>
        <time>2014-03-07T14:34:16.052Z</time>
      </trkpt>
      <trkpt lat="45.49886" lon="6.93787">
        <ele>1998</ele>
        <time>2014-03-07T14:34:38.042Z</time>
      </trkpt>
      <trkpt lat="45.49886" lon="6.93788">
        <ele>1998</ele>
        <time>2014-03-07T14:34:38.987Z</time>
      </trkpt>
      <trkpt lat="45.49892" lon="6.93796">
        <ele>1999</ele>
        <time>2014-03-07T14:35:01.034Z</time>
      </trkpt>
      <trkpt lat="45.49893" lon="6.93796">
        <ele>1999</ele>
        <time>2014-03-07T14:35:02.001Z</time>
      </trkpt>
      <trkpt lat="45.499" lon="6.93803">
        <ele>2000</ele>
        <time>2014-03-07T14:35:15.059Z</time>
      </trkpt>
      <trkpt lat="45.49901" lon="6.93804">
        <ele>2000</ele>
        <time>2014-03-07T14:35:16.020Z</time>
      </trkpt>
      <trkpt lat="45.49907" lon="6.93813">
        <ele>2001</ele>
        <time>2014-03-07T14:35:36.038Z</time>
      </trkpt>
      <trkpt lat="45.49907" lon="6.93814">
        <ele>2001</ele>
        <time>2014-03-07T14:35:37.044Z</time>
      </trkpt>
      <trkpt lat="45.49912" lon="6.93824">
        <ele>2003</ele>
        <time>2014-03-07T14:35:56.052Z</time>
      </trkpt>
      <trkpt lat="45.49913" lon="6.93824">
        <ele>2003</ele>
        <time>2014-03-07T14:35:57.062Z</time>
      </trkpt>
      <trkpt lat="45.49921" lon="6.93824">
        <ele>2002</ele>
        <time>2014-03-07T14:37:52.042Z</time>
      </trkpt>
      <trkpt lat="45.49922" lon="6.93824">
        <ele>2002</ele>
        <time>2014-03-07T14:37:53.050Z</time>
      </trkpt>
      <trkpt lat="45.49926" lon="6.93815">
        <ele>2000</ele>
        <time>2014-03-07T14:38:35.039Z</time>
      </trkpt>
      <trkpt lat="45.49928" lon="6.93813">
        <ele>2000</ele>
        <time>2014-03-07T14:38:35.982Z</time>
      </trkpt>
      <trkpt lat="45.49934" lon="6.93809">
        <ele>1999</ele>
        <time>2014-03-07T14:38:38.982Z</time>
      </trkpt>
      <trkpt lat="45.49937" lon="6.93808">
        <ele>1999</ele>
        <time>2014-03-07T14:38:39.982Z</time>
      </trkpt>
      <trkpt lat="45.49944" lon="6.93803">
        <ele>1998</ele>
        <time>2014-03-07T14:38:43.981Z</time>
      </trkpt>
      <trkpt lat="45.49946" lon="6.93802">
        <ele>1998</ele>
        <time>2014-03-07T14:38:45.039Z</time>
      </trkpt>
      <trkpt lat="45.49954" lon="6.93798">
        <ele>1998</ele>
        <time>2014-03-07T14:38:49.983Z</time>
      </trkpt>
      <trkpt lat="45.49955" lon="6.93797">
        <ele>1998</ele>
        <time>2014-03-07T14:38:51.031Z</time>
      </trkpt>
      <trkpt lat="45.4996" lon="6.93788">
        <ele>1997</ele>
        <time>2014-03-07T14:39:04.071Z</time>
      </trkpt>
      <trkpt lat="45.49961" lon="6.93787">
        <ele>1997</ele>
        <time>2014-03-07T14:39:05.005Z</time>
      </trkpt>
      <trkpt lat="45.49967" lon="6.93779">
        <ele>1996</ele>
        <time>2014-03-07T14:39:10.034Z</time>
      </trkpt>
      <trkpt lat="45.49969" lon="6.93777">
        <ele>1995</ele>
        <time>2014-03-07T14:39:10.981Z</time>
      </trkpt>
      <trkpt lat="45.49976" lon="6.93772">
        <ele>1995</ele>
        <time>2014-03-07T14:39:14.053Z</time>
      </trkpt>
      <trkpt lat="45.49978" lon="6.9377">
        <ele>1994</ele>
        <time>2014-03-07T14:39:15.101Z</time>
      </trkpt>
      <trkpt lat="45.49985" lon="6.93762">
        <ele>1993</ele>
        <time>2014-03-07T14:39:17.990Z</time>
      </trkpt>
      <trkpt lat="45.49986" lon="6.9376">
        <ele>1992</ele>
        <time>2014-03-07T14:39:19.000Z</time>
      </trkpt>
      <trkpt lat="45.49982" lon="6.93748">
        <ele>1982</ele>
        <time>2014-03-07T14:39:24.979Z</time>
      </trkpt>
      <trkpt lat="45.49981" lon="6.93746">
        <ele>1982</ele>
        <time>2014-03-07T14:39:26.019Z</time>
      </trkpt>
      <trkpt lat="45.49979" lon="6.93736">
        <ele>1980</ele>
        <time>2014-03-07T14:39:30.983Z</time>
      </trkpt>
      <trkpt lat="45.49978" lon="6.93733">
        <ele>1980</ele>
        <time>2014-03-07T14:39:31.984Z</time>
      </trkpt>
      <trkpt lat="45.49976" lon="6.93722">
        <ele>1978</ele>
        <time>2014-03-07T14:39:38.012Z</time>
      </trkpt>
      <trkpt lat="45.49975" lon="6.9372">
        <ele>1978</ele>
        <time>2014-03-07T14:39:39.008Z</time>
      </trkpt>
      <trkpt lat="45.4998" lon="6.93731">
        <ele>1980</ele>
        <time>2014-03-07T14:41:38.979Z</time>
      </trkpt>
      <trkpt lat="45.49981" lon="6.93731">
        <ele>1980</ele>
        <time>2014-03-07T14:41:39.980Z</time>
      </trkpt>
      <trkpt lat="45.4999" lon="6.93729">
        <ele>1980</ele>
        <time>2014-03-07T14:41:46.979Z</time>
      </trkpt>
      <trkpt lat="45.4999" lon="6.93729">
        <ele>1980</ele>
        <time>2014-03-07T14:41:47.978Z</time>
      </trkpt>
      <trkpt lat="45.49999" lon="6.9373">
        <ele>1981</ele>
        <time>2014-03-07T14:41:57.977Z</time>
      </trkpt>
      <trkpt lat="45.5" lon="6.93731">
        <ele>1981</ele>
        <time>2014-03-07T14:41:58.978Z</time>
      </trkpt>
      <trkpt lat="45.50008" lon="6.93733">
        <ele>1985</ele>
        <time>2014-03-07T14:42:11.976Z</time>
      </trkpt>
      <trkpt lat="45.5001" lon="6.93734">
        <ele>1985</ele>
        <time>2014-03-07T14:42:12.976Z</time>
      </trkpt>
      <trkpt lat="45.50019" lon="6.93736">
        <ele>1986</ele>
        <time>2014-03-07T14:42:20.975Z</time>
      </trkpt>
      <trkpt lat="45.5002" lon="6.93736">
        <ele>1986</ele>
        <time>2014-03-07T14:42:21.975Z</time>
      </trkpt>
      <trkpt lat="45.50029" lon="6.93737">
        <ele>1986</ele>
        <time>2014-03-07T14:42:29.976Z</time>
      </trkpt>
      <trkpt lat="45.50029" lon="6.93738">
        <ele>1986</ele>
        <time>2014-03-07T14:42:30.977Z</time>
      </trkpt>
      <trkpt lat="45.50038" lon="6.9374">
        <ele>1987</ele>
        <time>2014-03-07T14:42:55.976Z</time>
      </trkpt>
      <trkpt lat="45.50038" lon="6.93739">
        <ele>1987</ele>
        <time>2014-03-07T14:42:56.980Z</time>
      </trkpt>
      <trkpt lat="45.50047" lon="6.93739">
        <ele>1988</ele>
        <time>2014-03-07T14:43:11.976Z</time>
      </trkpt>
      <trkpt lat="45.50049" lon="6.93739">
        <ele>1988</ele>
        <time>2014-03-07T14:43:12.975Z</time>
      </trkpt>
      <trkpt lat="45.50057" lon="6.93737">
        <ele>1989</ele>
        <time>2014-03-07T14:43:24.975Z</time>
      </trkpt>
      <trkpt lat="45.50058" lon="6.93737">
        <ele>1989</ele>
        <time>2014-03-07T14:43:25.961Z</time>
      </trkpt>
      <trkpt lat="45.50066" lon="6.93737">
        <ele>1991</ele>
        <time>2014-03-07T14:43:45.977Z</time>
      </trkpt>
      <trkpt lat="45.50067" lon="6.93737">
        <ele>1991</ele>
        <time>2014-03-07T14:43:46.975Z</time>
      </trkpt>
      <trkpt lat="45.50066" lon="6.93724">
        <ele>1989</ele>
        <time>2014-03-07T14:44:09.977Z</time>
      </trkpt>
      <trkpt lat="45.50066" lon="6.93719">
        <ele>1988</ele>
        <time>2014-03-07T14:44:10.977Z</time>
      </trkpt>
      <trkpt lat="45.50068" lon="6.93707">
        <ele>1986</ele>
        <time>2014-03-07T14:44:13.976Z</time>
      </trkpt>
      <trkpt lat="45.50069" lon="6.93705">
        <ele>1986</ele>
        <time>2014-03-07T14:44:14.976Z</time>
      </trkpt>
      <trkpt lat="45.50076" lon="6.93702">
        <ele>1985</ele>
        <time>2014-03-07T14:44:16.977Z</time>
      </trkpt>
      <trkpt lat="45.50078" lon="6.93702">
        <ele>1985</ele>
        <time>2014-03-07T14:44:17.986Z</time>
      </trkpt>
      <trkpt lat="45.50072" lon="6.93709">
        <ele>1986</ele>
        <time>2014-03-07T14:45:25.976Z</time>
      </trkpt>
      <trkpt lat="45.5007" lon="6.93708">
        <ele>1986</ele>
        <time>2014-03-07T14:45:26.977Z</time>
      </trkpt>
      <trkpt lat="45.50069" lon="6.93702">
        <ele>1985</ele>
        <time>2014-03-07T14:45:29.975Z</time>
      </trkpt>
      <trkpt lat="45.50089" lon="6.93705">
        <ele>1995</ele>
        <time>2014-03-07T14:45:30.976Z</time>
      </trkpt>
      <trkpt lat="45.50097" lon="6.93702">
        <ele>1995</ele>
        <time>2014-03-07T14:45:44.978Z</time>
      </trkpt>
      <trkpt lat="45.50098" lon="6.93702">
        <ele>1995</ele>
        <time>2014-03-07T14:45:45.977Z</time>
      </trkpt>
      <trkpt lat="45.50105" lon="6.937">
        <ele>1995</ele>
        <time>2014-03-07T14:46:29.051Z</time>
      </trkpt>
      <trkpt lat="45.50107" lon="6.937">
        <ele>1995</ele>
        <time>2014-03-07T14:46:29.977Z</time>
      </trkpt>
      <trkpt lat="45.50114" lon="6.93702">
        <ele>1996</ele>
        <time>2014-03-07T14:46:37.979Z</time>
      </trkpt>
      <trkpt lat="45.50115" lon="6.93702">
        <ele>1996</ele>
        <time>2014-03-07T14:46:39.042Z</time>
      </trkpt>
      <trkpt lat="45.50124" lon="6.93705">
        <ele>1997</ele>
        <time>2014-03-07T14:46:43.976Z</time>
      </trkpt>
      <trkpt lat="45.50126" lon="6.93706">
        <ele>1998</ele>
        <time>2014-03-07T14:46:45.001Z</time>
      </trkpt>
      <trkpt lat="45.50134" lon="6.9371">
        <ele>1999</ele>
        <time>2014-03-07T14:46:52.044Z</time>
      </trkpt>
      <trkpt lat="45.50135" lon="6.93711">
        <ele>1999</ele>
        <time>2014-03-07T14:46:52.976Z</time>
      </trkpt>
      <trkpt lat="45.50142" lon="6.93714">
        <ele>2000</ele>
        <time>2014-03-07T14:47:23.977Z</time>
      </trkpt>
      <trkpt lat="45.50143" lon="6.93715">
        <ele>2000</ele>
        <time>2014-03-07T14:47:24.990Z</time>
      </trkpt>
      <trkpt lat="45.50152" lon="6.93713">
        <ele>2001</ele>
        <time>2014-03-07T14:47:36.976Z</time>
      </trkpt>
      <trkpt lat="45.50153" lon="6.93714">
        <ele>2001</ele>
        <time>2014-03-07T14:47:37.981Z</time>
      </trkpt>
      <trkpt lat="45.50161" lon="6.9371">
        <ele>2001</ele>
        <time>2014-03-07T14:48:07.975Z</time>
      </trkpt>
      <trkpt lat="45.50162" lon="6.9371">
        <ele>2001</ele>
        <time>2014-03-07T14:48:08.975Z</time>
      </trkpt>
      <trkpt lat="45.5017" lon="6.93712">
        <ele>2011</ele>
        <time>2014-03-07T14:48:16.976Z</time>
      </trkpt>
      <trkpt lat="45.50171" lon="6.93712">
        <ele>2011</ele>
        <time>2014-03-07T14:48:17.976Z</time>
      </trkpt>
      <trkpt lat="45.50173" lon="6.937">
        <ele>2009</ele>
        <time>2014-03-07T14:48:38.972Z</time>
      </trkpt>
      <trkpt lat="45.50174" lon="6.937">
        <ele>2009</ele>
        <time>2014-03-07T14:48:39.972Z</time>
      </trkpt>
      <trkpt lat="45.50181" lon="6.93693">
        <ele>2008</ele>
        <time>2014-03-07T14:49:22.974Z</time>
      </trkpt>
      <trkpt lat="45.50181" lon="6.93692">
        <ele>2008</ele>
        <time>2014-03-07T14:49:23.974Z</time>
      </trkpt>
      <trkpt lat="45.50189" lon="6.93688">
        <ele>2008</ele>
        <time>2014-03-07T14:49:34.974Z</time>
      </trkpt>
      <trkpt lat="45.5019" lon="6.93688">
        <ele>2008</ele>
        <time>2014-03-07T14:49:35.974Z</time>
      </trkpt>
      <trkpt lat="45.50187" lon="6.93676">
        <ele>2006</ele>
        <time>2014-03-07T14:49:57.031Z</time>
      </trkpt>
      <trkpt lat="45.50186" lon="6.93675">
        <ele>2005</ele>
        <time>2014-03-07T14:49:58.012Z</time>
      </trkpt>
      <trkpt lat="45.50178" lon="6.93674">
        <ele>2003</ele>
        <time>2014-03-07T14:50:58.030Z</time>
      </trkpt>
      <trkpt lat="45.50177" lon="6.93674">
        <ele>2003</ele>
        <time>2014-03-07T14:50:58.991Z</time>
      </trkpt>
      <trkpt lat="45.50169" lon="6.93676">
        <ele>2001</ele>
        <time>2014-03-07T14:51:09.973Z</time>
      </trkpt>
      <trkpt lat="45.50168" lon="6.93676">
        <ele>2001</ele>
        <time>2014-03-07T14:51:11.004Z</time>
      </trkpt>
      <trkpt lat="45.5016" lon="6.9368">
        <ele>1997</ele>
        <time>2014-03-07T14:51:22.975Z</time>
      </trkpt>
      <trkpt lat="45.50159" lon="6.93681">
        <ele>1997</ele>
        <time>2014-03-07T14:51:23.972Z</time>
      </trkpt>
      <trkpt lat="45.5015" lon="6.93679">
        <ele>1997</ele>
        <time>2014-03-07T14:51:45.014Z</time>
      </trkpt>
      <trkpt lat="45.5015" lon="6.93678">
        <ele>1997</ele>
        <time>2014-03-07T14:51:46.024Z</time>
      </trkpt>
      <trkpt lat="45.50143" lon="6.9367">
        <ele>1996</ele>
        <time>2014-03-07T14:52:05.028Z</time>
      </trkpt>
      <trkpt lat="45.50142" lon="6.93669">
        <ele>1996</ele>
        <time>2014-03-07T14:52:06.036Z</time>
      </trkpt>
      <trkpt lat="45.50141" lon="6.93681">
        <ele>1997</ele>
        <time>2014-03-07T14:52:49.971Z</time>
      </trkpt>
      <trkpt lat="45.50142" lon="6.93682">
        <ele>1997</ele>
        <time>2014-03-07T14:52:50.971Z</time>
      </trkpt>
      <trkpt lat="45.50145" lon="6.9367">
        <ele>1996</ele>
        <time>2014-03-07T14:53:29.977Z</time>
      </trkpt>
      <trkpt lat="45.50145" lon="6.9367">
        <ele>1996</ele>
        <time>2014-03-07T14:53:31.064Z</time>
      </trkpt>
      <trkpt lat="45.50152" lon="6.93673">
        <ele>1997</ele>
        <time>2014-03-07T15:15:35.948Z</time>
      </trkpt>
      <trkpt lat="45.50154" lon="6.93671">
        <ele>1997</ele>
        <time>2014-03-07T15:15:36.948Z</time>
      </trkpt>
      <trkpt lat="45.50161" lon="6.93668">
        <ele>1996</ele>
        <time>2014-03-07T15:15:38.948Z</time>
      </trkpt>
      <trkpt lat="45.50163" lon="6.93665">
        <ele>1993</ele>
        <time>2014-03-07T15:15:39.951Z</time>
      </trkpt>
      <trkpt lat="45.50171" lon="6.93669">
        <ele>1999</ele>
        <time>2014-03-07T15:16:01.028Z</time>
      </trkpt>
      <trkpt lat="45.50172" lon="6.93669">
        <ele>1999</ele>
        <time>2014-03-07T15:16:02.039Z</time>
      </trkpt>
      <trkpt lat="45.50181" lon="6.93668">
        <ele>2003</ele>
        <time>2014-03-07T15:16:25.948Z</time>
      </trkpt>
      <trkpt lat="45.50181" lon="6.93668">
        <ele>2003</ele>
        <time>2014-03-07T15:16:26.949Z</time>
      </trkpt>
      <trkpt lat="45.50189" lon="6.93665">
        <ele>1993</ele>
        <time>2014-03-07T15:16:42.986Z</time>
      </trkpt>
      <trkpt lat="45.5019" lon="6.93666">
        <ele>1993</ele>
        <time>2014-03-07T15:16:43.948Z</time>
      </trkpt>
      <trkpt lat="45.50195" lon="6.93674">
        <ele>2007</ele>
        <time>2014-03-07T15:17:49.992Z</time>
      </trkpt>
      <trkpt lat="45.50195" lon="6.93676">
        <ele>2007</ele>
        <time>2014-03-07T15:17:50.994Z</time>
      </trkpt>
      <trkpt lat="45.50193" lon="6.93687">
        <ele>2009</ele>
        <time>2014-03-07T15:17:59.013Z</time>
      </trkpt>
      <trkpt lat="45.50192" lon="6.93689">
        <ele>2009</ele>
        <time>2014-03-07T15:17:59.987Z</time>
      </trkpt>
      <trkpt lat="45.50184" lon="6.93692">
        <ele>2008</ele>
        <time>2014-03-07T15:18:10.987Z</time>
      </trkpt>
      <trkpt lat="45.50183" lon="6.93692">
        <ele>2008</ele>
        <time>2014-03-07T15:18:11.991Z</time>
      </trkpt>
      <trkpt lat="45.50177" lon="6.93698">
        <ele>2009</ele>
        <time>2014-03-07T15:18:26.944Z</time>
      </trkpt>
      <trkpt lat="45.50177" lon="6.937">
        <ele>2009</ele>
        <time>2014-03-07T15:18:27.943Z</time>
      </trkpt>
      <trkpt lat="45.50171" lon="6.93709">
        <ele>2011</ele>
        <time>2014-03-07T15:18:38.945Z</time>
      </trkpt>
      <trkpt lat="45.5017" lon="6.9371">
        <ele>2011</ele>
        <time>2014-03-07T15:18:39.948Z</time>
      </trkpt>
      <trkpt lat="45.50162" lon="6.93709">
        <ele>2001</ele>
        <time>2014-03-07T15:18:53.947Z</time>
      </trkpt>
      <trkpt lat="45.50161" lon="6.93709">
        <ele>2001</ele>
        <time>2014-03-07T15:18:55.020Z</time>
      </trkpt>
      <trkpt lat="45.50153" lon="6.93712">
        <ele>2001</ele>
        <time>2014-03-07T15:19:01.995Z</time>
      </trkpt>
      <trkpt lat="45.50152" lon="6.93712">
        <ele>2001</ele>
        <time>2014-03-07T15:19:02.950Z</time>
      </trkpt>
      <trkpt lat="45.50145" lon="6.93705">
        <ele>1999</ele>
        <time>2014-03-07T15:19:11.986Z</time>
      </trkpt>
      <trkpt lat="45.50144" lon="6.93706">
        <ele>1999</ele>
        <time>2014-03-07T15:19:13.000Z</time>
      </trkpt>
      <trkpt lat="45.50135" lon="6.93703">
        <ele>1998</ele>
        <time>2014-03-07T15:19:22.945Z</time>
      </trkpt>
      <trkpt lat="45.50135" lon="6.93701">
        <ele>1998</ele>
        <time>2014-03-07T15:19:23.973Z</time>
      </trkpt>
      <trkpt lat="45.50126" lon="6.93699">
        <ele>1997</ele>
        <time>2014-03-07T15:22:23.066Z</time>
      </trkpt>
      <trkpt lat="45.50125" lon="6.93698">
        <ele>1997</ele>
        <time>2014-03-07T15:22:23.992Z</time>
      </trkpt>
      <trkpt lat="45.50119" lon="6.93689">
        <ele>1995</ele>
        <time>2014-03-07T15:22:35.993Z</time>
      </trkpt>
      <trkpt lat="45.50119" lon="6.93688">
        <ele>1995</ele>
        <time>2014-03-07T15:22:36.996Z</time>
      </trkpt>
      <trkpt lat="45.50112" lon="6.93681">
        <ele>1993</ele>
        <time>2014-03-07T15:23:34.994Z</time>
      </trkpt>
      <trkpt lat="45.50112" lon="6.9368">
        <ele>1993</ele>
        <time>2014-03-07T15:23:36.037Z</time>
      </trkpt>
      <trkpt lat="45.50103" lon="6.93678">
        <ele>1991</ele>
        <time>2014-03-07T15:24:14.023Z</time>
      </trkpt>
      <trkpt lat="45.50103" lon="6.93677">
        <ele>1991</ele>
        <time>2014-03-07T15:24:14.989Z</time>
      </trkpt>
      <trkpt lat="45.50099" lon="6.93688">
        <ele>1992</ele>
        <time>2014-03-07T15:24:33.981Z</time>
      </trkpt>
      <trkpt lat="45.50098" lon="6.9369">
        <ele>1992</ele>
        <time>2014-03-07T15:24:34.941Z</time>
      </trkpt>
      <trkpt lat="45.50095" lon="6.937">
        <ele>1994</ele>
        <time>2014-03-07T15:24:36.975Z</time>
      </trkpt>
      <trkpt lat="45.50093" lon="6.93706">
        <ele>1995</ele>
        <time>2014-03-07T15:24:38.037Z</time>
      </trkpt>
      <trkpt lat="45.50089" lon="6.93717">
        <ele>1997</ele>
        <time>2014-03-07T15:24:41.008Z</time>
      </trkpt>
      <trkpt lat="45.50088" lon="6.93719">
        <ele>1997</ele>
        <time>2014-03-07T15:24:42.009Z</time>
      </trkpt>
      <trkpt lat="45.50088" lon="6.93718">
        <ele>1997</ele>
        <time>2014-03-07T15:24:44.993Z</time>
      </trkpt>
      <trkpt lat="45.50087" lon="6.93693">
        <ele>1992</ele>
        <time>2014-03-07T15:24:45.943Z</time>
      </trkpt>
      <trkpt lat="45.50078" lon="6.93693">
        <ele>1984</ele>
        <time>2014-03-07T15:24:52.928Z</time>
      </trkpt>
      <trkpt lat="45.50077" lon="6.93692">
        <ele>1984</ele>
        <time>2014-03-07T15:24:53.937Z</time>
      </trkpt>
      <trkpt lat="45.50068" lon="6.93693">
        <ele>1984</ele>
        <time>2014-03-07T15:25:04.942Z</time>
      </trkpt>
      <trkpt lat="45.50067" lon="6.93694">
        <ele>1984</ele>
        <time>2014-03-07T15:25:05.947Z</time>
      </trkpt>
      <trkpt lat="45.50059" lon="6.93693">
        <ele>1984</ele>
        <time>2014-03-07T15:25:18.005Z</time>
      </trkpt>
      <trkpt lat="45.50058" lon="6.93693">
        <ele>1984</ele>
        <time>2014-03-07T15:25:18.942Z</time>
      </trkpt>
      <trkpt lat="45.5005" lon="6.93686">
        <ele>1983</ele>
        <time>2014-03-07T15:25:31.018Z</time>
      </trkpt>
      <trkpt lat="45.5005" lon="6.93685">
        <ele>1982</ele>
        <time>2014-03-07T15:25:31.986Z</time>
      </trkpt>
      <trkpt lat="45.50047" lon="6.93673">
        <ele>1981</ele>
        <time>2014-03-07T15:25:44.995Z</time>
      </trkpt>
      <trkpt lat="45.50047" lon="6.93673">
        <ele>1981</ele>
        <time>2014-03-07T15:25:45.941Z</time>
      </trkpt>
      <trkpt lat="45.50054" lon="6.93672">
        <ele>1982</ele>
        <time>2014-03-07T15:27:06.024Z</time>
      </trkpt>
      <trkpt lat="45.50056" lon="6.93671">
        <ele>1982</ele>
        <time>2014-03-07T15:27:06.990Z</time>
      </trkpt>
      <trkpt lat="45.5006" lon="6.93661">
        <ele>1971</ele>
        <time>2014-03-07T15:27:12.021Z</time>
      </trkpt>
      <trkpt lat="45.50061" lon="6.93659">
        <ele>1971</ele>
        <time>2014-03-07T15:27:12.940Z</time>
      </trkpt>
      <trkpt lat="45.50067" lon="6.9365">
        <ele>1971</ele>
        <time>2014-03-07T15:27:17.942Z</time>
      </trkpt>
      <trkpt lat="45.50069" lon="6.93647">
        <ele>1971</ele>
        <time>2014-03-07T15:27:19.020Z</time>
      </trkpt>
      <trkpt lat="45.50074" lon="6.93638">
        <ele>1969</ele>
        <time>2014-03-07T15:27:21.941Z</time>
      </trkpt>
      <trkpt lat="45.50076" lon="6.93635">
        <ele>1969</ele>
        <time>2014-03-07T15:27:22.939Z</time>
      </trkpt>
      <trkpt lat="45.50078" lon="6.93623">
        <ele>1967</ele>
        <time>2014-03-07T15:27:42.003Z</time>
      </trkpt>
      <trkpt lat="45.50078" lon="6.9362">
        <ele>1966</ele>
        <time>2014-03-07T15:27:43.008Z</time>
      </trkpt>
      <trkpt lat="45.50079" lon="6.93609">
        <ele>1965</ele>
        <time>2014-03-07T15:27:46.996Z</time>
      </trkpt>
      <trkpt lat="45.50079" lon="6.93606">
        <ele>1964</ele>
        <time>2014-03-07T15:27:48.000Z</time>
      </trkpt>
      <trkpt lat="45.50079" lon="6.93594">
        <ele>1963</ele>
        <time>2014-03-07T15:27:56.018Z</time>
      </trkpt>
      <trkpt lat="45.50079" lon="6.93592">
        <ele>1963</ele>
        <time>2014-03-07T15:27:56.966Z</time>
      </trkpt>
      <trkpt lat="45.50082" lon="6.93582">
        <ele>1961</ele>
        <time>2014-03-07T15:28:02.019Z</time>
      </trkpt>
      <trkpt lat="45.50083" lon="6.9358">
        <ele>1960</ele>
        <time>2014-03-07T15:28:03.021Z</time>
      </trkpt>
      <trkpt lat="45.50089" lon="6.93571">
        <ele>1963</ele>
        <time>2014-03-07T15:28:17.000Z</time>
      </trkpt>
      <trkpt lat="45.50089" lon="6.93569">
        <ele>1963</ele>
        <time>2014-03-07T15:28:18.002Z</time>
      </trkpt>
      <trkpt lat="45.50089" lon="6.93557">
        <ele>1962</ele>
        <time>2014-03-07T15:28:22.996Z</time>
      </trkpt>
      <trkpt lat="45.50089" lon="6.93554">
        <ele>1962</ele>
        <time>2014-03-07T15:28:23.998Z</time>
      </trkpt>
      <trkpt lat="45.5009" lon="6.93543">
        <ele>1962</ele>
        <time>2014-03-07T15:28:27.989Z</time>
      </trkpt>
      <trkpt lat="45.5009" lon="6.93541">
        <ele>1962</ele>
        <time>2014-03-07T15:28:28.993Z</time>
      </trkpt>
      <trkpt lat="45.5009" lon="6.93529">
        <ele>1961</ele>
        <time>2014-03-07T15:28:33.987Z</time>
      </trkpt>
      <trkpt lat="45.50089" lon="6.93527">
        <ele>1960</ele>
        <time>2014-03-07T15:28:34.994Z</time>
      </trkpt>
      <trkpt lat="45.50088" lon="6.93514">
        <ele>1959</ele>
        <time>2014-03-07T15:28:43.005Z</time>
      </trkpt>
      <trkpt lat="45.50088" lon="6.93513">
        <ele>1958</ele>
        <time>2014-03-07T15:28:44.010Z</time>
      </trkpt>
      <trkpt lat="45.50083" lon="6.93503">
        <ele>1954</ele>
        <time>2014-03-07T15:29:20.064Z</time>
      </trkpt>
      <trkpt lat="45.50083" lon="6.93501">
        <ele>1955</ele>
        <time>2014-03-07T15:29:20.984Z</time>
      </trkpt>
      <trkpt lat="45.50089" lon="6.93493">
        <ele>1953</ele>
        <time>2014-03-07T15:29:25.974Z</time>
      </trkpt>
      <trkpt lat="45.5009" lon="6.93492">
        <ele>1953</ele>
        <time>2014-03-07T15:29:26.989Z</time>
      </trkpt>
      <trkpt lat="45.50086" lon="6.93486">
        <ele>1952</ele>
        <time>2014-03-07T15:30:00.936Z</time>
      </trkpt>
      <trkpt lat="45.50083" lon="6.93481">
        <ele>1951</ele>
        <time>2014-03-07T15:30:01.935Z</time>
      </trkpt>
      <trkpt lat="45.50085" lon="6.9347">
        <ele>1950</ele>
        <time>2014-03-07T15:30:05.935Z</time>
      </trkpt>
      <trkpt lat="45.50087" lon="6.93466">
        <ele>1949</ele>
        <time>2014-03-07T15:30:06.935Z</time>
      </trkpt>
      <trkpt lat="45.50082" lon="6.93477">
        <ele>1944</ele>
        <time>2014-03-07T15:30:19.934Z</time>
      </trkpt>
      <trkpt lat="45.50082" lon="6.93478">
        <ele>1944</ele>
        <time>2014-03-07T15:30:20.935Z</time>
      </trkpt>
      <trkpt lat="45.50074" lon="6.93478">
        <ele>1943</ele>
        <time>2014-03-07T15:30:35.935Z</time>
      </trkpt>
      <trkpt lat="45.50073" lon="6.93478">
        <ele>1943</ele>
        <time>2014-03-07T15:30:36.936Z</time>
      </trkpt>
      <trkpt lat="45.50064" lon="6.93478">
        <ele>1942</ele>
        <time>2014-03-07T15:30:43.935Z</time>
      </trkpt>
      <trkpt lat="45.50063" lon="6.93478">
        <ele>1941</ele>
        <time>2014-03-07T15:30:44.934Z</time>
      </trkpt>
      <trkpt lat="45.50054" lon="6.93475">
        <ele>1939</ele>
        <time>2014-03-07T15:30:51.936Z</time>
      </trkpt>
      <trkpt lat="45.50053" lon="6.93475">
        <ele>1939</ele>
        <time>2014-03-07T15:30:52.938Z</time>
      </trkpt>
      <trkpt lat="45.50048" lon="6.93485">
        <ele>1939</ele>
        <time>2014-03-07T15:31:00.936Z</time>
      </trkpt>
      <trkpt lat="45.50047" lon="6.93486">
        <ele>1939</ele>
        <time>2014-03-07T15:31:01.936Z</time>
      </trkpt>
      <trkpt lat="45.50039" lon="6.93488">
        <ele>1938</ele>
        <time>2014-03-07T15:31:19.937Z</time>
      </trkpt>
      <trkpt lat="45.50038" lon="6.93486">
        <ele>1937</ele>
        <time>2014-03-07T15:31:20.939Z</time>
      </trkpt>
      <trkpt lat="45.5003" lon="6.9348">
        <ele>1936</ele>
        <time>2014-03-07T15:31:28.966Z</time>
      </trkpt>
      <trkpt lat="45.50029" lon="6.93481">
        <ele>1936</ele>
        <time>2014-03-07T15:31:30.006Z</time>
      </trkpt>
      <trkpt lat="45.50021" lon="6.93476">
        <ele>1935</ele>
        <time>2014-03-07T15:31:42.938Z</time>
      </trkpt>
      <trkpt lat="45.5002" lon="6.93475">
        <ele>1934</ele>
        <time>2014-03-07T15:31:44.033Z</time>
      </trkpt>
      <trkpt lat="45.50018" lon="6.93463">
        <ele>1934</ele>
        <time>2014-03-07T15:33:06.014Z</time>
      </trkpt>
      <trkpt lat="45.50018" lon="6.93463">
        <ele>1934</ele>
        <time>2014-03-07T15:33:06.990Z</time>
      </trkpt>
      <trkpt lat="45.50015" lon="6.93475">
        <ele>1934</ele>
        <time>2014-03-07T15:34:25.937Z</time>
      </trkpt>
      <trkpt lat="45.50014" lon="6.93477">
        <ele>1934</ele>
        <time>2014-03-07T15:34:26.991Z</time>
      </trkpt>
      <trkpt lat="45.50011" lon="6.93487">
        <ele>1933</ele>
        <time>2014-03-07T15:34:32.934Z</time>
      </trkpt>
      <trkpt lat="45.50009" lon="6.93489">
        <ele>1933</ele>
        <time>2014-03-07T15:34:33.934Z</time>
      </trkpt>
      <trkpt lat="45.5" lon="6.9349">
        <ele>1932</ele>
        <time>2014-03-07T15:34:50.935Z</time>
      </trkpt>
      <trkpt lat="45.50001" lon="6.93496">
        <ele>1932</ele>
        <time>2014-03-07T15:34:51.961Z</time>
      </trkpt>
      <trkpt lat="45.50001" lon="6.93507">
        <ele>1935</ele>
        <time>2014-03-07T15:35:08.983Z</time>
      </trkpt>
      <trkpt lat="45.5" lon="6.9351">
        <ele>1930</ele>
        <time>2014-03-07T15:35:10.000Z</time>
      </trkpt>
      <trkpt lat="45.49996" lon="6.9352">
        <ele>1930</ele>
        <time>2014-03-07T15:35:36.933Z</time>
      </trkpt>
      <trkpt lat="45.49996" lon="6.93522">
        <ele>1931</ele>
        <time>2014-03-07T15:35:37.933Z</time>
      </trkpt>
      <trkpt lat="45.49995" lon="6.93535">
        <ele>1932</ele>
        <time>2014-03-07T15:35:46.932Z</time>
      </trkpt>
      <trkpt lat="45.49995" lon="6.93535">
        <ele>1932</ele>
        <time>2014-03-07T15:35:47.936Z</time>
      </trkpt>
      <trkpt lat="45.49994" lon="6.93548">
        <ele>1934</ele>
        <time>2014-03-07T15:36:22.932Z</time>
      </trkpt>
      <trkpt lat="45.49994" lon="6.93549">
        <ele>1934</ele>
        <time>2014-03-07T15:36:23.935Z</time>
      </trkpt>
      <trkpt lat="45.49997" lon="6.9356">
        <ele>1937</ele>
        <time>2014-03-07T15:36:44.017Z</time>
      </trkpt>
      <trkpt lat="45.49996" lon="6.93563">
        <ele>1937</ele>
        <time>2014-03-07T15:36:44.935Z</time>
      </trkpt>
      <trkpt lat="45.4999" lon="6.93573">
        <ele>1939</ele>
        <time>2014-03-07T15:36:50.001Z</time>
      </trkpt>
      <trkpt lat="45.4999" lon="6.93574">
        <ele>1939</ele>
        <time>2014-03-07T15:36:50.934Z</time>
      </trkpt>
      <trkpt lat="45.49985" lon="6.93565">
        <ele>1936</ele>
        <time>2014-03-07T15:36:55.958Z</time>
      </trkpt>
      <trkpt lat="45.49984" lon="6.93561">
        <ele>1935</ele>
        <time>2014-03-07T15:36:57.006Z</time>
      </trkpt>
      <trkpt lat="45.4998" lon="6.9355">
        <ele>1933</ele>
        <time>2014-03-07T15:36:59.990Z</time>
      </trkpt>
      <trkpt lat="45.49979" lon="6.93547">
        <ele>1932</ele>
        <time>2014-03-07T15:37:00.992Z</time>
      </trkpt>
      <trkpt lat="45.49974" lon="6.93535">
        <ele>1930</ele>
        <time>2014-03-07T15:37:05.993Z</time>
      </trkpt>
      <trkpt lat="45.49974" lon="6.93534">
        <ele>1930</ele>
        <time>2014-03-07T15:37:06.992Z</time>
      </trkpt>
      <trkpt lat="45.49966" lon="6.93527">
        <ele>1928</ele>
        <time>2014-03-07T15:40:07.986Z</time>
      </trkpt>
      <trkpt lat="45.49966" lon="6.93527">
        <ele>1928</ele>
        <time>2014-03-07T15:40:08.992Z</time>
      </trkpt>
      <trkpt lat="45.4996" lon="6.93517">
        <ele>1926</ele>
        <time>2014-03-07T15:40:26.929Z</time>
      </trkpt>
      <trkpt lat="45.4996" lon="6.93516">
        <ele>1926</ele>
        <time>2014-03-07T15:40:27.929Z</time>
      </trkpt>
      <trkpt lat="45.49954" lon="6.93508">
        <ele>1924</ele>
        <time>2014-03-07T15:40:31.929Z</time>
      </trkpt>
      <trkpt lat="45.49953" lon="6.93507">
        <ele>1924</ele>
        <time>2014-03-07T15:40:32.929Z</time>
      </trkpt>
      <trkpt lat="45.49945" lon="6.93504">
        <ele>1921</ele>
        <time>2014-03-07T15:40:42.928Z</time>
      </trkpt>
      <trkpt lat="45.49943" lon="6.935">
        <ele>1909</ele>
        <time>2014-03-07T15:40:43.991Z</time>
      </trkpt>
      <trkpt lat="45.49936" lon="6.93501">
        <ele>1917</ele>
        <time>2014-03-07T15:41:20.985Z</time>
      </trkpt>
      <trkpt lat="45.49934" lon="6.93499">
        <ele>1907</ele>
        <time>2014-03-07T15:41:21.928Z</time>
      </trkpt>
      <trkpt lat="45.49929" lon="6.93508">
        <ele>1915</ele>
        <time>2014-03-07T15:41:34.010Z</time>
      </trkpt>
      <trkpt lat="45.49928" lon="6.9351">
        <ele>1916</ele>
        <time>2014-03-07T15:41:35.011Z</time>
      </trkpt>
      <trkpt lat="45.4992" lon="6.93507">
        <ele>1911</ele>
        <time>2014-03-07T15:41:40.999Z</time>
      </trkpt>
      <trkpt lat="45.49917" lon="6.93504">
        <ele>1908</ele>
        <time>2014-03-07T15:41:41.928Z</time>
      </trkpt>
      <trkpt lat="45.4991" lon="6.9351">
        <ele>1905</ele>
        <time>2014-03-07T15:41:47.970Z</time>
      </trkpt>
      <trkpt lat="45.49908" lon="6.93513">
        <ele>1905</ele>
        <time>2014-03-07T15:41:48.928Z</time>
      </trkpt>
      <trkpt lat="45.49903" lon="6.93522">
        <ele>1907</ele>
        <time>2014-03-07T15:42:06.934Z</time>
      </trkpt>
      <trkpt lat="45.49901" lon="6.93524">
        <ele>1907</ele>
        <time>2014-03-07T15:42:07.988Z</time>
      </trkpt>
      <trkpt lat="45.49894" lon="6.93532">
        <ele>1907</ele>
        <time>2014-03-07T15:42:19.927Z</time>
      </trkpt>
      <trkpt lat="45.49893" lon="6.93532">
        <ele>1907</ele>
        <time>2014-03-07T15:42:20.928Z</time>
      </trkpt>
      <trkpt lat="45.49891" lon="6.93545">
        <ele>1910</ele>
        <time>2014-03-07T15:42:36.912Z</time>
      </trkpt>
      <trkpt lat="45.49891" lon="6.93545">
        <ele>1910</ele>
        <time>2014-03-07T15:42:37.926Z</time>
      </trkpt>
      <trkpt lat="45.49886" lon="6.93555">
        <ele>1911</ele>
        <time>2014-03-07T15:43:22.953Z</time>
      </trkpt>
      <trkpt lat="45.49886" lon="6.93555">
        <ele>1912</ele>
        <time>2014-03-07T15:43:24.009Z</time>
      </trkpt>
      <trkpt lat="45.49879" lon="6.93562">
        <ele>1912</ele>
        <time>2014-03-07T15:44:18.992Z</time>
      </trkpt>
      <trkpt lat="45.49878" lon="6.93562">
        <ele>1912</ele>
        <time>2014-03-07T15:44:19.959Z</time>
      </trkpt>
      <trkpt lat="45.49869" lon="6.9356">
        <ele>1910</ele>
        <time>2014-03-07T15:44:28.943Z</time>
      </trkpt>
      <trkpt lat="45.49866" lon="6.93558">
        <ele>1909</ele>
        <time>2014-03-07T15:44:29.928Z</time>
      </trkpt>
      <trkpt lat="45.49858" lon="6.93561">
        <ele>1909</ele>
        <time>2014-03-07T15:44:41.930Z</time>
      </trkpt>
      <trkpt lat="45.49857" lon="6.93562">
        <ele>1909</ele>
        <time>2014-03-07T15:44:42.932Z</time>
      </trkpt>
      <trkpt lat="45.49849" lon="6.93567">
        <ele>1910</ele>
        <time>2014-03-07T15:44:51.933Z</time>
      </trkpt>
      <trkpt lat="45.49848" lon="6.93568">
        <ele>1910</ele>
        <time>2014-03-07T15:44:52.990Z</time>
      </trkpt>
      <trkpt lat="45.49841" lon="6.93574">
        <ele>1912</ele>
        <time>2014-03-07T15:45:02.009Z</time>
      </trkpt>
      <trkpt lat="45.4984" lon="6.93574">
        <ele>1912</ele>
        <time>2014-03-07T15:45:02.954Z</time>
      </trkpt>
      <trkpt lat="45.49831" lon="6.93573">
        <ele>1905</ele>
        <time>2014-03-07T15:45:11.040Z</time>
      </trkpt>
      <trkpt lat="45.4983" lon="6.93573">
        <ele>1905</ele>
        <time>2014-03-07T15:45:12.001Z</time>
      </trkpt>
      <trkpt lat="45.49823" lon="6.93579">
        <ele>1905</ele>
        <time>2014-03-07T15:45:22.990Z</time>
      </trkpt>
      <trkpt lat="45.49822" lon="6.9358">
        <ele>1904</ele>
        <time>2014-03-07T15:45:24.001Z</time>
      </trkpt>
      <trkpt lat="45.49814" lon="6.9358">
        <ele>1900</ele>
        <time>2014-03-07T15:45:32.969Z</time>
      </trkpt>
      <trkpt lat="45.49813" lon="6.93581">
        <ele>1899</ele>
        <time>2014-03-07T15:45:33.983Z</time>
      </trkpt>
      <trkpt lat="45.49804" lon="6.93583">
        <ele>1896</ele>
        <time>2014-03-07T15:45:52.924Z</time>
      </trkpt>
      <trkpt lat="45.49804" lon="6.93584">
        <ele>1921</ele>
        <time>2014-03-07T15:45:53.938Z</time>
      </trkpt>
      <trkpt lat="45.49798" lon="6.93581">
        <ele>1894</ele>
        <time>2014-03-07T15:45:58.922Z</time>
      </trkpt>
      <trkpt lat="45.49795" lon="6.93579">
        <ele>1893</ele>
        <time>2014-03-07T15:45:59.921Z</time>
      </trkpt>
      <trkpt lat="45.49787" lon="6.93583">
        <ele>1892</ele>
        <time>2014-03-07T15:46:09.925Z</time>
      </trkpt>
      <trkpt lat="45.49786" lon="6.93584">
        <ele>1918</ele>
        <time>2014-03-07T15:46:10.921Z</time>
      </trkpt>
      <trkpt lat="45.49779" lon="6.93593">
        <ele>1917</ele>
        <time>2014-03-07T15:46:36.921Z</time>
      </trkpt>
      <trkpt lat="45.49779" lon="6.93594">
        <ele>1917</ele>
        <time>2014-03-07T15:46:37.923Z</time>
      </trkpt>
      <trkpt lat="45.49772" lon="6.936">
        <ele>1917</ele>
        <time>2014-03-07T15:46:48.923Z</time>
      </trkpt>
      <trkpt lat="45.49771" lon="6.936">
        <ele>1916</ele>
        <time>2014-03-07T15:46:49.926Z</time>
      </trkpt>
      <trkpt lat="45.49764" lon="6.93607">
        <ele>1917</ele>
        <time>2014-03-07T15:47:03.922Z</time>
      </trkpt>
      <trkpt lat="45.49763" lon="6.93607">
        <ele>1917</ele>
        <time>2014-03-07T15:47:04.922Z</time>
      </trkpt>
      <trkpt lat="45.49754" lon="6.93608">
        <ele>1916</ele>
        <time>2014-03-07T15:47:16.925Z</time>
      </trkpt>
      <trkpt lat="45.49753" lon="6.93608">
        <ele>1917</ele>
        <time>2014-03-07T15:47:17.921Z</time>
      </trkpt>
      <trkpt lat="45.49745" lon="6.93609">
        <ele>1906</ele>
        <time>2014-03-07T15:47:46.919Z</time>
      </trkpt>
      <trkpt lat="45.49744" lon="6.93609">
        <ele>1906</ele>
        <time>2014-03-07T15:47:47.920Z</time>
      </trkpt>
      <trkpt lat="45.49738" lon="6.936">
        <ele>1903</ele>
        <time>2014-03-07T15:47:57.949Z</time>
      </trkpt>
      <trkpt lat="45.49728" lon="6.93589">
        <ele>1901</ele>
        <time>2014-03-07T15:47:58.967Z</time>
      </trkpt>
      <trkpt lat="45.49731" lon="6.93576">
        <ele>1879</ele>
        <time>2014-03-07T15:47:59.910Z</time>
      </trkpt>
      <trkpt lat="45.49727" lon="6.93572">
        <ele>1877</ele>
        <time>2014-03-07T15:48:01.919Z</time>
      </trkpt>
      <trkpt lat="45.49718" lon="6.93575">
        <ele>1874</ele>
        <time>2014-03-07T15:48:17.924Z</time>
      </trkpt>
      <trkpt lat="45.49711" lon="6.93552">
        <ele>1869</ele>
        <time>2014-03-07T15:48:18.926Z</time>
      </trkpt>
      <trkpt lat="45.49718" lon="6.93557">
        <ele>1871</ele>
        <time>2014-03-07T15:48:20.979Z</time>
      </trkpt>
      <trkpt lat="45.49763" lon="6.93572">
        <ele>1890</ele>
        <time>2014-03-07T15:48:31.926Z</time>
      </trkpt>
      <trkpt lat="45.49755" lon="6.93554">
        <ele>1885</ele>
        <time>2014-03-07T15:48:32.926Z</time>
      </trkpt>
      <trkpt lat="45.49761" lon="6.93555">
        <ele>1885</ele>
        <time>2014-03-07T15:48:33.925Z</time>
      </trkpt>
      <trkpt lat="45.49765" lon="6.93558">
        <ele>1886</ele>
        <time>2014-03-07T15:48:34.926Z</time>
      </trkpt>
      <trkpt lat="45.49766" lon="6.93557">
        <ele>1886</ele>
        <time>2014-03-07T15:48:36.924Z</time>
      </trkpt>
      <trkpt lat="45.49774" lon="6.93573">
        <ele>1889</ele>
        <time>2014-03-07T15:48:37.924Z</time>
      </trkpt>
      <trkpt lat="45.49784" lon="6.93592">
        <ele>1919</ele>
        <time>2014-03-07T15:48:38.922Z</time>
      </trkpt>
      <trkpt lat="45.4978" lon="6.93599">
        <ele>1919</ele>
        <time>2014-03-07T15:48:40.923Z</time>
      </trkpt>
      <trkpt lat="45.49777" lon="6.93609">
        <ele>1921</ele>
        <time>2014-03-07T15:48:41.925Z</time>
      </trkpt>
      <trkpt lat="45.49775" lon="6.93601">
        <ele>1918</ele>
        <time>2014-03-07T15:48:42.920Z</time>
      </trkpt>
      <trkpt lat="45.49771" lon="6.93596">
        <ele>1915</ele>
        <time>2014-03-07T15:48:43.923Z</time>
      </trkpt>
      <trkpt lat="45.49768" lon="6.93594">
        <ele>1913</ele>
        <time>2014-03-07T15:48:46.925Z</time>
      </trkpt>
      <trkpt lat="45.49754" lon="6.93587">
        <ele>1900</ele>
        <time>2014-03-07T15:48:47.922Z</time>
      </trkpt>
      <trkpt lat="45.49755" lon="6.93575">
        <ele>1891</ele>
        <time>2014-03-07T15:48:50.922Z</time>
      </trkpt>
      <trkpt lat="45.49754" lon="6.93573">
        <ele>1890</ele>
        <time>2014-03-07T15:48:51.921Z</time>
      </trkpt>
      <trkpt lat="45.49755" lon="6.93583">
        <ele>1892</ele>
        <time>2014-03-07T15:48:58.921Z</time>
      </trkpt>
      <trkpt lat="45.49763" lon="6.93571">
        <ele>1889</ele>
        <time>2014-03-07T15:48:59.920Z</time>
      </trkpt>
      <trkpt lat="45.49763" lon="6.93579">
        <ele>1891</ele>
        <time>2014-03-07T15:49:00.921Z</time>
      </trkpt>
      <trkpt lat="45.49762" lon="6.93586">
        <ele>1907</ele>
        <time>2014-03-07T15:49:01.921Z</time>
      </trkpt>
      <trkpt lat="45.49769" lon="6.93589">
        <ele>1912</ele>
        <time>2014-03-07T15:49:03.923Z</time>
      </trkpt>
      <trkpt lat="45.49762" lon="6.936">
        <ele>1913</ele>
        <time>2014-03-07T15:49:04.921Z</time>
      </trkpt>
      <trkpt lat="45.4976" lon="6.93609">
        <ele>1918</ele>
        <time>2014-03-07T15:49:05.920Z</time>
      </trkpt>
      <trkpt lat="45.49758" lon="6.93614">
        <ele>1920</ele>
        <time>2014-03-07T15:49:06.922Z</time>
      </trkpt>
      <trkpt lat="45.49758" lon="6.93621">
        <ele>1923</ele>
        <time>2014-03-07T15:49:07.921Z</time>
      </trkpt>
      <trkpt lat="45.4976" lon="6.93629">
        <ele>1927</ele>
        <time>2014-03-07T15:49:08.919Z</time>
      </trkpt>
      <trkpt lat="45.49765" lon="6.93631">
        <ele>1928</ele>
        <time>2014-03-07T15:49:10.920Z</time>
      </trkpt>
      <trkpt lat="45.49766" lon="6.93614">
        <ele>1921</ele>
        <time>2014-03-07T15:49:11.921Z</time>
      </trkpt>
      <trkpt lat="45.49761" lon="6.93601">
        <ele>1914</ele>
        <time>2014-03-07T15:49:12.994Z</time>
      </trkpt>
      <trkpt lat="45.49758" lon="6.9359">
        <ele>1905</ele>
        <time>2014-03-07T15:49:21.974Z</time>
      </trkpt>
      <trkpt lat="45.49757" lon="6.93585">
        <ele>1903</ele>
        <time>2014-03-07T15:49:22.922Z</time>
      </trkpt>
      <trkpt lat="45.49761" lon="6.9358">
        <ele>1891</ele>
        <time>2014-03-07T15:49:33.920Z</time>
      </trkpt>
      <trkpt lat="45.49757" lon="6.93565">
        <ele>1888</ele>
        <time>2014-03-07T15:49:34.920Z</time>
      </trkpt>
      <trkpt lat="45.49753" lon="6.93573">
        <ele>1890</ele>
        <time>2014-03-07T15:49:39.920Z</time>
      </trkpt>
      <trkpt lat="45.49752" lon="6.93577">
        <ele>1892</ele>
        <time>2014-03-07T15:49:40.927Z</time>
      </trkpt>
      <trkpt lat="45.49752" lon="6.93578">
        <ele>1892</ele>
        <time>2014-03-07T15:49:46.966Z</time>
      </trkpt>
      <trkpt lat="45.49766" lon="6.93575">
        <ele>1890</ele>
        <time>2014-03-07T15:49:47.922Z</time>
      </trkpt>
      <trkpt lat="45.49762" lon="6.93566">
        <ele>1888</ele>
        <time>2014-03-07T15:49:53.922Z</time>
      </trkpt>
      <trkpt lat="45.49769" lon="6.93553">
        <ele>1885</ele>
        <time>2014-03-07T15:49:54.920Z</time>
      </trkpt>
      <trkpt lat="45.49774" lon="6.93543">
        <ele>1883</ele>
        <time>2014-03-07T15:51:15.997Z</time>
      </trkpt>
      <trkpt lat="45.49774" lon="6.93542">
        <ele>1883</ele>
        <time>2014-03-07T15:51:16.996Z</time>
      </trkpt>
      <trkpt lat="45.49778" lon="6.93531">
        <ele>1880</ele>
        <time>2014-03-07T15:51:25.920Z</time>
      </trkpt>
      <trkpt lat="45.49779" lon="6.9353">
        <ele>1880</ele>
        <time>2014-03-07T15:51:26.920Z</time>
      </trkpt>
      <trkpt lat="45.49786" lon="6.93524">
        <ele>1880</ele>
        <time>2014-03-07T15:51:34.921Z</time>
      </trkpt>
      <trkpt lat="45.49788" lon="6.93523">
        <ele>1880</ele>
        <time>2014-03-07T15:51:35.922Z</time>
      </trkpt>
      <trkpt lat="45.49795" lon="6.93517">
        <ele>1880</ele>
        <time>2014-03-07T15:51:49.918Z</time>
      </trkpt>
      <trkpt lat="45.49796" lon="6.93517">
        <ele>1880</ele>
        <time>2014-03-07T15:51:50.918Z</time>
      </trkpt>
      <trkpt lat="45.49803" lon="6.9351">
        <ele>1879</ele>
        <time>2014-03-07T15:52:06.979Z</time>
      </trkpt>
      <trkpt lat="45.49803" lon="6.93509">
        <ele>1879</ele>
        <time>2014-03-07T15:52:08.017Z</time>
      </trkpt>
      <trkpt lat="45.49808" lon="6.93499">
        <ele>1861</ele>
        <time>2014-03-07T15:52:35.917Z</time>
      </trkpt>
      <trkpt lat="45.49809" lon="6.93495">
        <ele>1861</ele>
        <time>2014-03-07T15:52:36.918Z</time>
      </trkpt>
      <trkpt lat="45.49814" lon="6.93505">
        <ele>1879</ele>
        <time>2014-03-07T15:53:02.970Z</time>
      </trkpt>
      <trkpt lat="45.49814" lon="6.93506">
        <ele>1879</ele>
        <time>2014-03-07T15:53:03.917Z</time>
      </trkpt>
      <trkpt lat="45.49811" lon="6.93494">
        <ele>1862</ele>
        <time>2014-03-07T15:54:10.972Z</time>
      </trkpt>
      <trkpt lat="45.4981" lon="6.93493">
        <ele>1861</ele>
        <time>2014-03-07T15:54:12.003Z</time>
      </trkpt>
      <trkpt lat="45.49803" lon="6.93489">
        <ele>1859</ele>
        <time>2014-03-07T15:54:21.990Z</time>
      </trkpt>
      <trkpt lat="45.49802" lon="6.93488">
        <ele>1859</ele>
        <time>2014-03-07T15:54:22.989Z</time>
      </trkpt>
      <trkpt lat="45.49797" lon="6.93477">
        <ele>1856</ele>
        <time>2014-03-07T15:54:33.918Z</time>
      </trkpt>
      <trkpt lat="45.49798" lon="6.93475">
        <ele>1856</ele>
        <time>2014-03-07T15:54:34.985Z</time>
      </trkpt>
      <trkpt lat="45.49798" lon="6.93463">
        <ele>1855</ele>
        <time>2014-03-07T15:54:43.977Z</time>
      </trkpt>
      <trkpt lat="45.49798" lon="6.93462">
        <ele>1855</ele>
        <time>2014-03-07T15:54:44.918Z</time>
      </trkpt>
      <trkpt lat="45.49798" lon="6.9345">
        <ele>1853</ele>
        <time>2014-03-07T15:55:03.989Z</time>
      </trkpt>
      <trkpt lat="45.49798" lon="6.93449">
        <ele>1853</ele>
        <time>2014-03-07T15:55:04.988Z</time>
      </trkpt>
      <trkpt lat="45.49794" lon="6.9344">
        <ele>1851</ele>
        <time>2014-03-07T15:55:19.919Z</time>
      </trkpt>
      <trkpt lat="45.49794" lon="6.93438">
        <ele>1851</ele>
        <time>2014-03-07T15:55:20.983Z</time>
      </trkpt>
      <trkpt lat="45.49794" lon="6.93427">
        <ele>1850</ele>
        <time>2014-03-07T15:55:37.974Z</time>
      </trkpt>
      <trkpt lat="45.49794" lon="6.93425">
        <ele>1850</ele>
        <time>2014-03-07T15:55:38.984Z</time>
      </trkpt>
      <trkpt lat="45.49794" lon="6.93413">
        <ele>1836</ele>
        <time>2014-03-07T15:55:43.975Z</time>
      </trkpt>
      <trkpt lat="45.49793" lon="6.93411">
        <ele>1835</ele>
        <time>2014-03-07T15:55:44.982Z</time>
      </trkpt>
      <trkpt lat="45.49787" lon="6.93402">
        <ele>1834</ele>
        <time>2014-03-07T15:55:54.991Z</time>
      </trkpt>
      <trkpt lat="45.49787" lon="6.93401">
        <ele>1834</ele>
        <time>2014-03-07T15:55:55.979Z</time>
      </trkpt>
      <trkpt lat="45.49783" lon="6.93407">
        <ele>1834</ele>
        <time>2014-03-07T15:57:55.981Z</time>
      </trkpt>
      <trkpt lat="45.49783" lon="6.93413">
        <ele>1834</ele>
        <time>2014-03-07T15:57:56.984Z</time>
      </trkpt>
      <trkpt lat="45.49788" lon="6.93403">
        <ele>1834</ele>
        <time>2014-03-07T15:58:27.981Z</time>
      </trkpt>
      <trkpt lat="45.49788" lon="6.93402">
        <ele>1834</ele>
        <time>2014-03-07T15:58:28.915Z</time>
      </trkpt>
      <trkpt lat="45.49785" lon="6.93403">
        <ele>1834</ele>
        <time>2014-03-07T15:59:01.897Z</time>
      </trkpt>
    </trkseg>
  </trk>
</gpx>